createdAt,value
2022-10-18T00:00:58.634Z,47.38
2022-10-18T00:03:38.554Z,44.25
2022-10-18T00:06:09.390Z,48.55
2022-10-18T00:08:38.639Z,48.85
2022-10-18T00:11:06.430Z,49.42
2022-10-18T00:13:33.703Z,52.90
2022-10-18T00:16:03.718Z,51.85
2022-10-18T00:18:31.425Z,48.17
2022-10-18T00:21:03.979Z,57.72
2022-10-18T00:23:32.402Z,54.28
2022-10-18T00:26:06.634Z,54.95
2022-10-18T00:28:35.463Z,50.17
2022-10-18T00:31:20.813Z,50.83
2022-10-18T00:33:51.844Z,49.95
2022-10-18T00:36:19.907Z,51.60
2022-10-18T00:38:47.803Z,48.85
2022-10-18T00:41:18.892Z,47.25
2022-10-18T00:43:58.122Z,45.47
2022-10-18T00:46:28.754Z,50.22
2022-10-18T00:49:06.633Z,50.72
2022-10-18T00:51:53.064Z,49.08
2022-10-18T00:54:21.067Z,52.35
2022-10-18T00:56:48.672Z,65.85
2022-10-18T00:59:18.187Z,60.35
2022-10-18T01:01:46.180Z,50.97
2022-10-18T01:04:18.003Z,51.38
2022-10-18T01:07:13.088Z,50.10
2022-10-18T01:09:56.459Z,53.58
2022-10-18T01:12:56.363Z,43.60
2022-10-18T01:15:31.043Z,44.95
2022-10-18T01:18:08.892Z,45.92
2022-10-18T01:20:41.848Z,39.70
2022-10-18T01:23:41.062Z,44.15
2022-10-18T01:26:45.937Z,43.65
2022-10-18T01:29:51.024Z,48.53
2022-10-18T01:32:33.009Z,53.42
2022-10-18T01:35:04.753Z,52.53
2022-10-18T01:37:34.530Z,56.92
2022-10-18T01:40:07.017Z,55.47
2022-10-18T01:42:35.356Z,54.20
2022-10-18T01:45:04.672Z,60.75
2022-10-18T01:47:32.735Z,58.15
2022-10-18T01:50:02.839Z,54.05
2022-10-18T01:52:30.623Z,53.63
2022-10-18T01:55:00.100Z,53.05
2022-10-18T01:57:40.937Z,52.78
2022-10-18T02:00:24.112Z,50.28
2022-10-18T02:02:54.340Z,50.50
2022-10-18T02:05:49.628Z,51.25
2022-10-18T02:08:33.615Z,54.00
2022-10-18T02:11:05.548Z,57.72
2022-10-18T02:13:42.994Z,51.70
2022-10-18T02:16:23.614Z,53.85
2022-10-18T02:19:05.183Z,53.38
2022-10-18T02:21:33.658Z,57.78
2022-10-18T02:24:02.573Z,51.85
2022-10-18T02:26:30.243Z,52.45
2022-10-18T02:28:57.628Z,63.25
2022-10-18T02:31:31.327Z,57.60
2022-10-18T02:34:27.762Z,52.92
2022-10-18T02:36:59.593Z,57.17
2022-10-18T02:39:34.258Z,56.15
2022-10-18T02:42:06.938Z,55.33
2022-10-18T02:44:35.199Z,49.00
2022-10-18T02:47:04.353Z,49.60
2022-10-18T02:49:31.574Z,48.75
2022-10-18T02:51:59.011Z,45.63
2022-10-18T02:54:26.218Z,44.38
2022-10-18T02:56:53.627Z,44.30
2022-10-18T02:59:20.809Z,46.25
2022-10-18T03:01:48.362Z,47.83
2022-10-18T03:04:15.661Z,46.10
2022-10-18T03:06:43.122Z,44.33
2022-10-18T03:09:10.437Z,43.80
2022-10-18T03:11:38.028Z,43.05
2022-10-18T03:14:05.193Z,42.38
2022-10-18T03:16:34.144Z,39.58
2022-10-18T03:19:01.402Z,40.20
2022-10-18T03:21:29.007Z,38.10
2022-10-18T03:23:56.430Z,40.50
2022-10-18T03:26:23.827Z,36.00
2022-10-18T03:28:51.186Z,38.60
2022-10-18T03:31:18.659Z,35.72
2022-10-18T03:33:46.715Z,36.67
2022-10-18T03:36:14.149Z,36.75
2022-10-18T03:38:41.498Z,36.85
2022-10-18T03:41:08.989Z,35.55
2022-10-18T03:43:36.292Z,35.60
2022-10-18T03:46:03.793Z,35.40
2022-10-18T03:48:31.243Z,33.78
2022-10-18T03:50:58.668Z,38.20
2022-10-18T03:53:25.828Z,40.00
2022-10-18T03:55:54.344Z,40.67
2022-10-18T03:58:22.420Z,43.30
2022-10-18T04:00:53.704Z,42.63
2022-10-18T04:03:22.487Z,41.85
2022-10-18T04:05:50.763Z,39.22
2022-10-18T04:08:19.033Z,39.25
2022-10-18T04:10:46.897Z,39.33
2022-10-18T04:13:14.328Z,40.00
2022-10-18T04:15:41.749Z,48.38
2022-10-18T04:18:09.156Z,56.80
2022-10-18T04:20:36.748Z,51.70
2022-10-18T04:23:03.972Z,53.80
2022-10-18T04:25:31.598Z,55.00
2022-10-18T04:28:01.998Z,62.78
2022-10-18T04:30:29.627Z,62.13
2022-10-18T04:32:56.808Z,63.30
2022-10-18T04:35:26.181Z,62.20
2022-10-18T04:37:54.023Z,55.08
2022-10-18T04:40:21.738Z,53.15
2022-10-18T04:42:48.984Z,53.58
2022-10-18T04:45:16.523Z,60.83
2022-10-18T04:47:43.847Z,56.15
2022-10-18T04:50:11.285Z,57.33
2022-10-18T04:52:38.491Z,58.15
2022-10-18T04:55:06.585Z,56.25
2022-10-18T04:57:34.013Z,65.50
2022-10-18T05:00:01.969Z,58.03
2022-10-18T05:02:29.394Z,62.97
2022-10-18T05:04:57.049Z,63.33
2022-10-18T05:07:24.243Z,70.63
2022-10-18T05:09:51.804Z,80.88
2022-10-18T05:12:19.075Z,75.32
2022-10-18T05:14:46.548Z,74.18
2022-10-18T05:17:14.313Z,90.53
2022-10-18T05:19:41.847Z,79.20
2022-10-18T05:22:08.978Z,104.85
2022-10-18T05:24:36.444Z,90.90
2022-10-18T05:27:03.871Z,81.00
2022-10-18T05:29:31.466Z,92.35
2022-10-18T05:31:58.679Z,85.57
2022-10-18T05:34:27.491Z,93.70
2022-10-18T05:36:55.114Z,85.90
2022-10-18T05:39:23.143Z,79.97
2022-10-18T05:41:50.314Z,79.93
2022-10-18T05:44:17.733Z,80.18
2022-10-18T05:46:44.883Z,82.95
2022-10-18T05:49:13.505Z,74.15
2022-10-18T05:51:40.682Z,70.25
2022-10-18T05:54:08.185Z,71.43
2022-10-18T05:56:35.424Z,67.53
2022-10-18T05:59:05.232Z,76.95
2022-10-18T06:01:32.438Z,68.35
2022-10-18T06:04:03.018Z,75.43
2022-10-18T06:06:31.629Z,64.18
2022-10-18T06:08:59.838Z,61.17
2022-10-18T06:11:27.003Z,65.25
2022-10-18T06:13:54.477Z,73.25
2022-10-18T06:16:23.387Z,62.05
2022-10-18T06:18:54.987Z,73.68
2022-10-18T06:21:24.218Z,64.80
2022-10-18T06:23:57.338Z,64.70
2022-10-18T06:26:25.892Z,65.30
2022-10-18T06:28:55.515Z,64.28
2022-10-18T06:31:22.994Z,66.90
2022-10-18T06:33:50.767Z,64.47
2022-10-18T06:36:20.118Z,57.03
2022-10-18T06:38:47.755Z,53.72
2022-10-18T06:41:15.226Z,41.47
2022-10-18T06:43:43.999Z,38.30
2022-10-18T06:46:11.307Z,31.02
2022-10-18T06:48:42.017Z,27.17
2022-10-18T06:51:10.767Z,26.05
2022-10-18T06:53:44.432Z,25.00
2022-10-18T06:56:20.705Z,31.92
2022-10-18T06:58:48.261Z,32.80
2022-10-18T07:01:17.015Z,30.80
2022-10-18T07:03:45.912Z,30.80
2022-10-18T07:06:18.062Z,27.98
2022-10-18T07:08:46.866Z,30.65
2022-10-18T07:11:17.009Z,36.53
2022-10-18T07:13:45.285Z,25.20
2022-10-18T07:16:17.414Z,21.23
2022-10-18T07:18:49.964Z,15.05
2022-10-18T07:21:19.708Z,18.00
2022-10-18T07:23:48.277Z,17.50
2022-10-18T07:26:21.853Z,14.35
2022-10-18T07:28:55.543Z,11.88
2022-10-18T07:31:23.896Z,12.25
2022-10-18T07:33:52.005Z,33.53
2022-10-18T07:36:21.388Z,23.17
2022-10-18T07:38:50.017Z,17.70
2022-10-18T07:41:17.754Z,20.15
2022-10-18T07:43:47.935Z,21.10
2022-10-18T07:46:15.976Z,13.30
2022-10-18T07:48:43.942Z,12.48
2022-10-18T07:51:11.954Z,8.70
2022-10-18T07:53:39.818Z,8.90
2022-10-18T07:56:16.132Z,10.75
2022-10-18T07:58:49.153Z,9.75
2022-10-18T08:01:16.415Z,9.50
2022-10-18T08:03:44.436Z,10.30
2022-10-18T08:06:13.722Z,13.20
2022-10-18T08:08:41.667Z,13.60
2022-10-18T08:11:18.123Z,12.75
2022-10-18T08:13:45.731Z,12.07
2022-10-18T08:16:16.248Z,9.73
2022-10-18T08:18:44.267Z,10.82
2022-10-18T08:21:13.222Z,9.73
2022-10-18T08:23:41.497Z,9.48
2022-10-18T08:26:14.717Z,9.57
2022-10-18T08:28:49.085Z,9.18
2022-10-18T08:31:21.552Z,9.75
2022-10-18T08:33:49.008Z,9.27
2022-10-18T08:36:17.340Z,8.93
2022-10-18T08:38:45.233Z,9.13
2022-10-18T08:41:15.479Z,8.27
2022-10-18T08:44:10.658Z,9.77
2022-10-18T08:46:40.852Z,8.95
2022-10-18T08:49:18.787Z,10.02
2022-10-18T08:51:49.587Z,10.85
2022-10-18T08:54:35.137Z,11.57
2022-10-18T08:57:15.100Z,11.45
2022-10-18T08:59:42.598Z,11.98
2022-10-18T09:02:15.964Z,11.85
2022-10-18T09:04:51.502Z,10.88
2022-10-18T09:07:57.274Z,11.60
2022-10-18T09:10:41.878Z,11.05
2022-10-18T09:13:09.122Z,10.32
2022-10-18T09:16:01.092Z,8.40
2022-10-18T09:19:07.456Z,9.35
2022-10-18T09:21:43.977Z,10.02
2022-10-18T09:24:20.747Z,9.88
2022-10-18T09:26:50.662Z,8.88
2022-10-18T09:29:59.609Z,8.57
2022-10-18T09:32:56.908Z,8.43
2022-10-18T09:35:48.558Z,7.45
2022-10-18T09:38:22.810Z,7.70
2022-10-18T09:41:07.572Z,8.38
2022-10-18T09:46:10.163Z,6.85
2022-10-18T09:48:50.303Z,7.07
2022-10-18T09:51:24.488Z,7.00
2022-10-18T09:54:07.788Z,6.45
2022-10-18T09:56:42.274Z,6.32
2022-10-18T09:59:30.129Z,6.57
2022-10-18T10:01:57.428Z,6.00
2022-10-18T10:04:25.152Z,6.85
2022-10-18T10:06:55.607Z,5.85
2022-10-18T10:09:41.832Z,6.38
2022-10-18T10:12:27.708Z,6.25
2022-10-18T10:15:07.182Z,6.10
2022-10-18T10:17:35.161Z,5.57
2022-10-18T10:20:15.764Z,5.72
2022-10-18T10:22:45.780Z,6.75
2022-10-18T10:25:31.225Z,5.05
2022-10-18T10:28:04.356Z,5.28
2022-10-18T10:30:35.509Z,5.43
2022-10-18T10:33:04.020Z,4.90
2022-10-18T10:35:56.086Z,5.50
2022-10-18T10:38:25.811Z,5.60
2022-10-18T10:40:54.192Z,6.63
2022-10-18T10:43:38.148Z,5.43
2022-10-18T10:46:11.599Z,6.22
2022-10-18T10:49:08.454Z,6.45
2022-10-18T10:51:43.884Z,6.18
2022-10-18T10:54:20.884Z,4.93
2022-10-18T10:57:11.538Z,6.20
2022-10-18T10:59:44.025Z,8.38
2022-10-18T11:02:18.556Z,5.47
2022-10-18T11:04:47.892Z,6.15
2022-10-18T11:07:36.676Z,5.47
2022-10-18T11:10:17.098Z,5.50
2022-10-18T11:12:48.116Z,4.75
2022-10-18T11:15:20.935Z,5.18
2022-10-18T11:18:09.174Z,5.45
2022-10-18T11:20:43.844Z,5.68
2022-10-18T11:23:13.782Z,5.22
2022-10-18T11:26:11.557Z,5.65
2022-10-18T11:29:06.882Z,4.68
2022-10-18T11:31:58.434Z,4.93
2022-10-18T11:34:59.989Z,4.75
2022-10-18T11:37:43.361Z,4.70
2022-10-18T11:40:29.209Z,4.88
2022-10-18T11:42:59.387Z,4.85
2022-10-18T11:45:38.784Z,4.80
2022-10-18T11:48:15.246Z,4.72
2022-10-18T11:51:14.273Z,4.72
2022-10-18T11:53:41.408Z,4.47
2022-10-18T11:56:11.473Z,4.65
2022-10-18T11:58:38.962Z,3.67
2022-10-18T12:01:39.578Z,7.88
2022-10-18T12:04:21.308Z,10.45
2022-10-18T12:06:52.488Z,3.17
2022-10-18T12:09:35.057Z,1.85
2022-10-18T12:12:14.878Z,1.80
2022-10-18T12:14:51.538Z,1.98
2022-10-18T12:17:50.019Z,2.13
2022-10-18T12:20:23.918Z,2.00
2022-10-18T12:23:02.873Z,2.50
2022-10-18T12:25:34.353Z,1.92
2022-10-18T12:28:23.047Z,2.40
2022-10-18T12:31:04.623Z,2.22
2022-10-18T12:33:39.672Z,1.98
2022-10-18T12:36:22.068Z,1.70
2022-10-18T12:39:02.233Z,1.85
2022-10-18T12:41:32.815Z,1.40
2022-10-18T12:44:30.848Z,1.60
2022-10-18T12:47:07.273Z,2.05
2022-10-18T12:49:40.181Z,1.80
2022-10-18T12:52:23.853Z,1.40
2022-10-18T12:55:18.501Z,2.05
2022-10-18T12:57:52.134Z,2.20
2022-10-18T13:00:47.622Z,3.22
2022-10-18T13:03:18.238Z,2.50
2022-10-18T13:05:53.430Z,2.33
2022-10-18T13:08:27.537Z,2.00
2022-10-18T13:11:10.457Z,3.65
2022-10-18T13:13:56.909Z,2.20
2022-10-18T13:16:35.384Z,1.75
2022-10-18T13:19:18.112Z,1.92
2022-10-18T13:22:04.194Z,2.40
2022-10-18T13:25:01.925Z,2.50
2022-10-18T13:27:51.816Z,1.98
2022-10-18T13:30:50.552Z,2.15
2022-10-18T13:33:39.612Z,2.50
2022-10-18T13:36:25.041Z,2.20
2022-10-18T13:38:58.917Z,2.60
2022-10-18T13:41:34.351Z,2.33
2022-10-18T13:44:38.002Z,2.03
2022-10-18T13:47:05.272Z,2.80
2022-10-18T13:50:00.466Z,2.60
2022-10-18T13:52:58.127Z,2.50
2022-10-18T13:56:03.755Z,2.38
2022-10-18T13:58:48.749Z,2.38
2022-10-18T14:01:52.819Z,1.92
2022-10-18T14:05:16.535Z,3.22
2022-10-18T14:07:51.528Z,2.03
2022-10-18T14:10:50.301Z,2.90
2022-10-18T14:13:26.848Z,2.40
2022-10-18T14:15:59.825Z,3.20
2022-10-18T14:18:32.065Z,2.53
2022-10-18T14:21:17.832Z,3.60
2022-10-18T14:23:48.967Z,2.88
2022-10-18T14:26:18.394Z,2.50
2022-10-18T14:29:01.747Z,2.38
2022-10-18T14:31:30.227Z,4.10
2022-10-18T14:33:59.009Z,4.57
2022-10-18T14:36:35.036Z,4.30
2022-10-18T14:39:07.888Z,4.53
2022-10-18T14:41:49.078Z,3.75
2022-10-18T14:44:16.672Z,3.20
2022-10-18T14:46:58.527Z,3.97
2022-10-18T14:49:26.166Z,3.40
2022-10-18T14:51:56.962Z,3.38
2022-10-18T14:54:37.942Z,3.10
2022-10-18T14:57:07.248Z,3.40
2022-10-18T14:59:43.947Z,3.03
2022-10-18T15:02:21.874Z,3.20
2022-10-18T15:05:00.525Z,4.50
2022-10-18T15:07:31.755Z,3.95
2022-10-18T15:10:03.067Z,3.70
2022-10-18T15:12:40.982Z,3.55
2022-10-18T15:15:27.505Z,6.90
2022-10-18T15:17:55.546Z,17.55
2022-10-18T15:20:28.548Z,14.35
2022-10-18T15:23:25.551Z,5.90
2022-10-18T15:26:03.846Z,4.78
2022-10-18T15:28:53.884Z,6.15
2022-10-18T15:31:31.977Z,4.65
2022-10-18T15:34:24.327Z,3.20
2022-10-18T15:36:54.893Z,3.58
2022-10-18T15:39:22.525Z,3.13
2022-10-18T15:41:58.938Z,3.08
2022-10-18T15:44:49.418Z,3.10
2022-10-18T15:47:24.904Z,3.65
2022-10-18T15:49:58.597Z,4.68
2022-10-18T15:52:39.426Z,4.40
2022-10-18T15:55:31.847Z,6.30
2022-10-18T15:58:11.495Z,7.85
2022-10-18T16:00:38.922Z,8.18
2022-10-18T16:03:09.081Z,7.15
2022-10-18T16:05:38.336Z,7.72
2022-10-18T16:08:05.936Z,8.48
2022-10-18T16:10:33.340Z,8.95
2022-10-18T16:13:00.856Z,8.98
2022-10-18T16:15:28.546Z,7.32
2022-10-18T16:17:56.053Z,7.40
2022-10-18T16:20:25.325Z,7.32
2022-10-18T16:22:52.962Z,7.18
2022-10-18T16:25:20.338Z,6.63
2022-10-18T16:27:48.985Z,4.28
2022-10-18T16:30:22.145Z,4.47
2022-10-18T16:32:49.865Z,3.50
2022-10-18T16:35:17.396Z,3.53
2022-10-18T16:37:45.126Z,3.10
2022-10-18T16:40:25.067Z,3.70
2022-10-18T16:42:52.825Z,3.50
2022-10-18T16:45:20.252Z,4.28
2022-10-18T16:47:48.122Z,3.90
2022-10-18T16:50:18.824Z,3.85
2022-10-18T16:52:46.425Z,3.78
2022-10-18T16:55:21.606Z,4.60
2022-10-18T16:57:50.473Z,5.32
2022-10-18T17:00:22.355Z,6.75
2022-10-18T17:02:50.686Z,7.53
2022-10-18T17:05:19.864Z,7.85
2022-10-18T17:07:48.280Z,8.80
2022-10-18T17:10:18.807Z,8.77
2022-10-18T17:12:46.744Z,8.50
2022-10-18T17:15:14.037Z,6.82
2022-10-18T17:17:42.402Z,6.82
2022-10-18T17:20:16.848Z,7.20
2022-10-18T17:22:44.435Z,7.20
2022-10-18T17:25:11.805Z,6.13
2022-10-18T17:27:39.577Z,5.30
2022-10-18T17:30:07.423Z,4.13
2022-10-18T17:32:36.100Z,4.03
2022-10-18T17:35:04.069Z,4.07
2022-10-18T17:37:32.203Z,4.40
2022-10-18T17:39:59.764Z,4.20
2022-10-18T17:42:27.408Z,5.15
2022-10-18T17:44:57.054Z,6.80
2022-10-18T17:47:25.622Z,9.10
2022-10-18T17:49:52.960Z,9.77
2022-10-18T17:52:20.703Z,6.68
2022-10-18T17:54:47.976Z,5.70
2022-10-18T17:57:16.333Z,5.63
2022-10-18T17:59:43.923Z,5.72
2022-10-18T18:02:12.155Z,5.97
2022-10-18T18:04:39.655Z,8.27
2022-10-18T18:07:07.445Z,9.68
2022-10-18T18:09:34.834Z,9.50
2022-10-18T18:12:02.494Z,8.88
2022-10-18T18:14:29.903Z,10.10
2022-10-18T18:16:57.704Z,11.85
2022-10-18T18:19:25.146Z,9.57
2022-10-18T18:21:55.134Z,8.13
2022-10-18T18:24:25.013Z,6.85
2022-10-18T18:26:54.487Z,6.45
2022-10-18T18:29:23.234Z,6.97
2022-10-18T18:31:51.283Z,6.55
2022-10-18T18:34:22.248Z,5.95
2022-10-18T18:36:52.072Z,6.35
2022-10-18T18:39:22.483Z,5.78
2022-10-18T18:41:52.060Z,5.78
2022-10-18T18:44:20.924Z,6.60
2022-10-18T18:46:49.925Z,5.95
2022-10-18T18:49:17.283Z,6.70
2022-10-18T18:51:45.198Z,5.93
2022-10-18T18:54:14.648Z,5.90
2022-10-18T18:56:44.894Z,5.68
2022-10-18T18:59:14.618Z,6.53
2022-10-18T19:01:42.878Z,5.25
2022-10-18T19:04:10.861Z,5.82
2022-10-18T19:06:41.267Z,6.13
2022-10-18T19:09:19.837Z,5.43
2022-10-18T19:11:49.172Z,5.38
2022-10-18T19:14:17.061Z,13.25
2022-10-18T19:16:53.475Z,6.55
2022-10-18T19:19:23.972Z,5.55
2022-10-18T19:21:53.643Z,5.95
2022-10-18T19:24:22.338Z,5.97
2022-10-18T19:27:01.657Z,6.70
2022-10-18T19:29:33.564Z,7.22
2022-10-18T19:32:03.988Z,5.80
2022-10-18T19:34:34.574Z,5.80
2022-10-18T19:37:02.292Z,4.95
2022-10-18T19:39:34.876Z,7.57
2022-10-18T19:42:05.612Z,6.53
2022-10-18T19:44:35.092Z,6.65
2022-10-18T19:47:04.417Z,6.53
2022-10-18T19:49:31.976Z,6.63
2022-10-18T19:51:59.635Z,5.63
2022-10-18T19:54:27.412Z,5.25
2022-10-18T19:56:55.245Z,5.60
2022-10-18T19:59:24.252Z,5.90
2022-10-18T20:01:51.931Z,5.80
2022-10-18T20:04:19.417Z,5.72
2022-10-18T20:06:51.127Z,7.40
2022-10-18T20:09:20.772Z,6.07
2022-10-18T20:11:48.645Z,6.35
2022-10-18T20:14:16.025Z,7.82
2022-10-18T20:16:43.743Z,6.88
2022-10-18T20:19:11.902Z,7.72
2022-10-18T20:21:40.174Z,6.93
2022-10-18T20:24:07.999Z,6.53
2022-10-18T20:26:36.138Z,6.35
2022-10-18T20:29:04.336Z,8.32
2022-10-18T20:31:35.819Z,6.72
2022-10-18T20:34:06.182Z,5.38
2022-10-18T20:36:34.649Z,5.75
2022-10-18T20:39:02.518Z,7.93
2022-10-18T20:41:32.886Z,5.28
2022-10-18T20:44:02.452Z,4.88
2022-10-18T20:46:33.923Z,4.43
2022-10-18T20:49:01.883Z,4.22
2022-10-18T20:51:29.369Z,4.28
2022-10-18T20:53:56.835Z,5.10
2022-10-18T20:56:27.334Z,4.68
2022-10-18T20:58:56.894Z,5.35
2022-10-18T21:01:27.574Z,4.45
2022-10-18T21:03:57.712Z,5.07
2022-10-18T21:06:33.724Z,4.57
2022-10-18T21:09:04.271Z,4.78
2022-10-18T21:11:36.480Z,5.00
2022-10-18T21:14:04.436Z,4.38
2022-10-18T21:16:36.482Z,4.85
2022-10-18T21:19:15.428Z,4.88
2022-10-18T21:21:44.767Z,6.20
2022-10-18T21:24:12.873Z,5.18
2022-10-18T21:26:41.158Z,5.20
2022-10-18T21:29:09.971Z,7.03
2022-10-18T21:31:39.553Z,5.43
2022-10-18T21:34:12.952Z,5.10
2022-10-18T21:36:42.073Z,6.22
2022-10-18T21:39:15.260Z,5.80
2022-10-18T21:41:43.592Z,5.00
2022-10-18T21:44:11.769Z,5.20
2022-10-18T21:46:40.315Z,5.90
2022-10-18T21:49:08.002Z,5.68
2022-10-18T21:51:36.236Z,5.72
2022-10-18T21:54:03.675Z,6.22
2022-10-18T21:56:35.799Z,7.45
2022-10-18T21:59:03.905Z,8.43
2022-10-18T22:01:33.928Z,8.85
2022-10-18T22:04:04.762Z,9.27
2022-10-18T22:09:06.322Z,9.80
2022-10-18T22:11:38.216Z,11.57
2022-10-18T22:14:05.763Z,12.65
2022-10-18T22:16:33.275Z,12.85
2022-10-18T22:19:02.609Z,11.82
2022-10-18T22:21:35.945Z,13.00
2022-10-18T22:24:07.964Z,13.50
2022-10-18T22:26:38.631Z,13.73
2022-10-18T22:29:08.788Z,15.10
2022-10-18T22:31:39.608Z,14.77
2022-10-18T22:34:11.032Z,15.50
2022-10-18T22:36:39.076Z,12.93
2022-10-18T22:39:06.904Z,14.77
2022-10-18T22:41:35.548Z,14.95
2022-10-18T22:44:03.947Z,15.55
2022-10-18T22:46:33.097Z,16.70
2022-10-18T22:49:00.595Z,16.33
2022-10-18T22:51:28.394Z,16.67
2022-10-18T22:53:55.664Z,16.27
2022-10-18T22:56:24.308Z,16.60
2022-10-18T22:58:52.929Z,15.98
2022-10-18T23:01:23.310Z,18.25
2022-10-18T23:03:58.631Z,18.15
2022-10-18T23:08:59.363Z,18.67
2022-10-18T23:11:29.193Z,18.30
2022-10-18T23:13:56.464Z,16.75
2022-10-18T23:16:24.690Z,18.17
2022-10-18T23:18:54.888Z,18.52
2022-10-18T23:21:24.670Z,19.35
2022-10-18T23:23:53.179Z,18.50
2022-10-18T23:26:23.723Z,18.33
2022-10-18T23:28:53.107Z,21.45
2022-10-18T23:31:23.911Z,21.58
2022-10-18T23:33:54.866Z,20.83
2022-10-18T23:36:23.077Z,19.08
2022-10-18T23:38:51.155Z,20.70
2022-10-18T23:41:18.967Z,19.45
2022-10-18T23:43:47.068Z,22.15
2022-10-18T23:46:16.418Z,23.42
2022-10-18T23:48:44.024Z,23.13
2022-10-18T23:51:12.105Z,22.48
2022-10-18T23:53:39.290Z,24.15
2022-10-18T23:56:15.999Z,22.35
2022-10-18T23:58:44.838Z,22.83
